Time;durP1;ratioP1;P1;durP2;ratioP2;P2;SDS_P1;SDS_P2;PMS_P1;PMS_P2;Temp;Humidity;BMP_temperature;BMP_pressure;BME280_temperature;BME280_humidity;BME280_pressure;Samples;Min_cycle;Max_cycle;Signal;HPM_P1;HPM_P2
2022/10/04 00:02:22;;;;;;;10.75;5.40;;;9.10;99.90;;;;;;7338573;32;20127;-62
2022/10/04 00:06:25;;;;;;;17.65;6.00;;;9.10;99.90;;;;;;7271780;32;20571;-60
2022/10/04 00:10:30;;;;;;;9.30;5.37;;;9.10;99.90;;;;;;7342301;32;20111;-61
2022/10/04 00:14:37;;;;;;;9.80;5.55;;;9.10;99.90;;;;;;7335721;32;20547;-61
2022/10/04 00:18:43;;;;;;;11.48;5.37;;;9.20;99.90;;;;;;7345412;32;20133;-60
2022/10/04 00:23:23;;;;;;;9.82;5.32;;;9.20;99.90;;;;;;7344024;32;20119;-60
2022/10/04 00:27:26;;;;;;;13.60;5.10;;;9.20;99.90;;;;;;7344513;32;20175;-60
2022/10/04 00:31:28;;;;;;;11.48;5.80;;;9.30;99.90;;;;;;7347420;32;20726;-60
2022/10/04 00:35:30;;;;;;;8.88;5.25;;;9.30;99.90;;;;;;7347272;32;20134;-60
2022/10/04 00:39:31;;;;;;;14.10;6.35;;;9.30;99.90;;;;;;7348274;32;20558;-60
2022/10/04 00:43:45;;;;;;;12.48;5.10;;;9.30;99.90;;;;;;7352547;32;20213;-62
2022/10/04 00:47:46;;;;;;;10.65;4.97;;;9.30;99.90;;;;;;7351608;32;20152;-61
2022/10/04 00:51:56;;;;;;;8.90;5.62;;;9.20;99.90;;;;;;7349275;32;20111;-60
2022/10/04 00:56:02;;;;;;;9.50;5.18;;;9.20;99.90;;;;;;7350363;32;20726;-61
2022/10/04 01:00:10;;;;;;;11.55;5.57;;;9.20;99.90;;;;;;7343908;32;20119;-60
2022/10/04 01:04:23;;;;;;;12.10;5.30;;;9.10;99.90;;;;;;7354166;32;20255;-60
2022/10/04 01:08:30;;;;;;;9.25;4.70;;;9.10;99.90;;;;;;7347844;32;20137;-60
2022/10/04 01:12:50;;;;;;;6.82;5.05;;;9.00;99.90;;;;;;7353864;32;20194;-61
2022/10/04 01:16:52;;;;;;;11.35;5.37;;;9.00;99.90;;;;;;7345464;32;20879;-60
2022/10/04 01:20:57;;;;;;;11.15;5.45;;;8.90;99.90;;;;;;7356467;32;20099;-60
2022/10/04 01:24:58;;;;;;;10.27;6.20;;;8.90;99.90;;;;;;7347405;32;20133;-60
2022/10/04 01:29:08;;;;;;;9.18;6.07;;;8.90;99.90;;;;;;7351539;32;20103;-60
2022/10/04 01:33:11;;;;;;;10.23;5.75;;;8.90;99.90;;;;;;7345594;32;20104;-60
2022/10/04 01:37:13;;;;;;;14.02;6.47;;;9.00;99.90;;;;;;7342712;32;20197;-60
2022/10/04 01:41:20;;;;;;;12.00;6.32;;;9.00;99.90;;;;;;7344102;32;20133;-61
2022/10/04 01:45:34;;;;;;;13.67;6.53;;;9.00;99.90;;;;;;7343500;32;20817;-60
2022/10/04 01:49:38;;;;;;;13.35;6.20;;;8.90;99.90;;;;;;7343866;32;20779;-60
2022/10/04 01:53:48;;;;;;;11.70;5.85;;;8.90;99.90;;;;;;7344896;32;20103;-61
2022/10/04 01:58:20;;;;;;;11.55;6.03;;;8.90;99.90;;;;;;7342946;32;20251;-60
2022/10/04 02:02:40;;;;;;;12.48;5.95;;;8.80;99.90;;;;;;7346217;32;20153;-61
2022/10/04 02:06:44;;;;;;;10.20;5.60;;;8.80;99.90;;;;;;7346500;32;20272;-60
2022/10/04 02:10:48;;;;;;;9.77;5.50;;;8.70;99.90;;;;;;7344130;32;20139;-61
2022/10/04 02:14:52;;;;;;;7.60;5.50;;;8.70;99.90;;;;;;7345964;32;20115;-60
2022/10/04 02:18:54;;;;;;;8.57;5.43;;;8.70;99.90;;;;;;7344495;32;20898;-60
2022/10/04 02:23:01;;;;;;;12.35;5.65;;;8.70;99.90;;;;;;7340730;32;20130;-60
2022/10/04 02:27:05;;;;;;;8.43;5.60;;;8.60;99.90;;;;;;7352739;32;20099;-61
2022/10/04 02:35:51;;;;;;;9.05;5.55;;;8.60;99.90;;;;;;7342097;32;20145;-60
2022/10/04 02:40:01;;;;;;;10.40;5.65;;;8.60;99.90;;;;;;7344511;32;20228;-60
2022/10/04 02:44:19;;;;;;;9.00;6.15;;;8.60;99.90;;;;;;7342337;32;20111;-60
2022/10/04 02:48:29;;;;;;;;;;;8.60;99.90;;;;;;7344086;32;20571;-60
2022/10/04 02:52:42;;;;;;;11.82;6.72;;;8.70;99.90;;;;;;7344152;32;20062;-60
2022/10/04 02:56:49;;;;;;;11.30;7.68;;;8.80;99.90;;;;;;7346334;32;20133;-60
2022/10/04 03:00:56;;;;;;;14.93;7.72;;;9.00;99.90;;;;;;7342998;32;20657;-60
2022/10/04 03:05:07;;;;;;;11.93;8.33;;;9.10;99.90;;;;;;7342462;32;20198;-60
2022/10/04 03:09:09;;;;;;;13.10;7.75;;;9.30;99.90;;;;;;7349879;32;20141;-60
2022/10/04 03:13:12;;;;;;;13.90;8.10;;;9.40;99.90;;;;;;7345149;32;20286;-60
2022/10/04 03:17:15;;;;;;;16.23;8.27;;;9.40;99.90;;;;;;7338517;32;20778;-60
2022/10/04 03:21:19;;;;;;;18.30;8.20;;;9.50;99.90;;;;;;7346647;32;20554;-62
2022/10/04 03:25:28;;;;;;;15.68;8.48;;;9.50;99.90;;;;;;7344730;32;20816;-60
2022/10/04 03:29:32;;;;;;;13.90;8.32;;;9.50;99.90;;;;;;7348688;32;20107;-60
2022/10/04 03:33:34;;;;;;;14.70;7.72;;;9.50;99.90;;;;;;7350968;32;20103;-60
2022/10/04 03:37:37;;;;;;;15.57;7.87;;;9.50;99.90;;;;;;7351358;32;20103;-60
2022/10/04 03:41:40;;;;;;;13.93;7.60;;;9.60;99.90;;;;;;7341793;32;20233;-61
2022/10/04 03:45:43;;;;;;;12.60;7.18;;;9.60;99.90;;;;;;7350782;32;20202;-61
2022/10/04 03:49:46;;;;;;;17.30;7.22;;;9.70;99.90;;;;;;7343381;32;20281;-61
2022/10/04 03:53:57;;;;;;;15.10;7.60;;;9.70;99.90;;;;;;7347707;32;20155;-60
2022/10/04 03:58:00;;;;;;;12.45;6.95;;;9.70;99.90;;;;;;7351087;32;20119;-61
2022/10/04 04:02:18;;;;;;;13.80;7.97;;;9.70;99.90;;;;;;7338757;32;20491;-60
2022/10/04 04:06:21;;;;;;;14.52;7.47;;;9.70;99.90;;;;;;7339406;32;20141;-62
2022/10/04 04:10:26;;;;;;;13.98;8.07;;;9.70;99.90;;;;;;7346569;32;20872;-61
2022/10/04 04:14:28;;;;;;;14.60;7.72;;;9.70;99.90;;;;;;7344460;32;20145;-60
2022/10/04 04:18:33;;;;;;;11.85;7.47;;;9.70;99.90;;;;;;7338756;32;20540;-60
2022/10/04 04:22:36;;;;;;;12.35;7.12;;;9.70;99.90;;;;;;7342700;32;20095;-61
2022/10/04 04:26:44;;;;;;;13.15;8.18;;;9.70;99.90;;;;;;7345439;32;20487;-60
2022/10/04 04:30:48;;;;;;;11.68;7.37;;;9.70;99.90;;;;;;7343448;32;20120;-61
2022/10/04 04:34:59;;;;;;;15.63;7.78;;;9.70;99.90;;;;;;7346072;32;20226;-60
2022/10/04 04:39:42;;;;;;;12.43;7.80;;;9.60;99.90;;;;;;7339959;32;20111;-60
2022/10/04 04:43:44;;;;;;;10.27;6.97;;;9.60;99.90;;;;;;7340122;32;20210;-61
2022/10/04 04:47:55;;;;;;;15.48;6.85;;;9.50;99.90;;;;;;7339544;32;20127;-60
2022/10/04 04:51:56;;;;;;;14.13;6.47;;;9.40;99.90;;;;;;7344402;32;20133;-62
2022/10/04 04:56:01;;;;;;;11.05;6.28;;;9.40;99.90;;;;;;7339152;32;20175;-60
2022/10/04 05:00:06;;;;;;;11.75;5.70;;;9.30;99.90;;;;;;7338519;32;20134;-60
2022/10/04 05:04:07;;;;;;;10.15;5.68;;;9.20;99.90;;;;;;7343850;32;20528;-61
2022/10/04 05:08:23;;;;;;;12.20;7.00;;;9.20;99.90;;;;;;7337355;32;20099;-60
2022/10/04 05:12:26;;;;;;;14.27;6.30;;;9.20;99.90;;;;;;7346880;32;20115;-60
2022/10/04 05:16:30;;;;;;;9.48;6.60;;;9.30;99.90;;;;;;7341861;32;20115;-61
2022/10/04 05:20:33;;;;;;;12.15;6.35;;;9.30;99.90;;;;;;7346762;32;20651;-60
2022/10/04 05:24:45;;;;;;;12.48;7.03;;;9.30;99.90;;;;;;7352359;32;20104;-61
2022/10/04 05:28:47;;;;;;;12.48;7.07;;;9.40;99.90;;;;;;7341663;32;20122;-62
2022/10/04 05:33:17;;;;;;;13.60;6.40;;;9.40;99.90;;;;;;7344398;32;20108;-61
2022/10/04 05:38:06;;;;;;;13.80;6.55;;;9.40;99.90;;;;;;7353440;32;20137;-61
2022/10/04 05:42:21;;;;;;;10.55;6.07;;;9.40;99.90;;;;;;7339681;32;20223;-65
2022/10/04 05:46:34;;;;;;;12.27;6.25;;;9.40;99.90;;;;;;7347065;32;20193;-65
2022/10/04 05:50:41;;;;;;;12.75;6.18;;;9.40;99.90;;;;;;7341163;32;20115;-65
2022/10/04 05:54:43;;;;;;;8.95;4.65;;;9.40;99.90;;;;;;7338173;32;20194;-64
2022/10/04 05:59:22;;;;;;;10.85;5.85;;;9.30;99.90;;;;;;7349955;32;20141;-64
2022/10/04 06:04:07;;;;;;;10.25;5.68;;;9.40;99.90;;;;;;7346367;32;20115;-64
2022/10/04 06:08:14;;;;;;;12.45;5.53;;;9.40;99.90;;;;;;7323235;32;20115;-66
2022/10/04 06:12:54;;;;;;;9.15;5.20;;;9.40;99.90;;;;;;7352758;32;20107;-63
2022/10/04 06:17:24;;;;;;;7.53;5.15;;;9.40;99.90;;;;;;7347492;32;20133;-64
2022/10/04 06:21:28;;;;;;;8.18;5.10;;;9.40;99.90;;;;;;7344713;32;20190;-65
2022/10/04 06:25:58;;;;;;;16.35;5.50;;;9.40;99.90;;;;;;7343517;32;20108;-66
2022/10/04 06:30:03;;;;;;;13.70;5.90;;;9.50;99.90;;;;;;7347714;32;20518;-64
2022/10/04 06:34:28;;;;;;;10.40;5.03;;;9.60;99.90;;;;;;7349842;32;20111;-64
2022/10/04 06:38:33;;;;;;;12.37;5.45;;;9.60;99.90;;;;;;7345660;32;20578;-65
2022/10/04 06:42:49;;;;;;;8.43;4.30;;;9.60;99.90;;;;;;7350193;32;20114;-63
2022/10/04 06:47:18;;;;;;;11.12;4.90;;;9.70;99.90;;;;;;7349869;32;20107;-63
2022/10/04 06:51:25;;;;;;;11.15;4.97;;;9.70;99.90;;;;;;7350178;32;20108;-64
2022/10/04 06:55:36;;;;;;;;;;;9.80;99.90;;;;;;7342997;32;20108;-64
2022/10/04 06:59:47;;;;;;;11.70;5.15;;;9.90;99.90;;;;;;7343139;32;20013;-64
2022/10/04 07:04:03;;;;;;;11.35;5.00;;;9.90;99.90;;;;;;7341884;32;20475;-65
2022/10/04 07:08:32;;;;;;;10.13;4.85;;;10.00;99.90;;;;;;7339053;32;20126;-64
2022/10/04 07:12:40;;;;;;;8.57;4.80;;;10.00;99.90;;;;;;7342143;32;20515;-65
2022/10/04 07:17:00;;;;;;;7.82;5.30;;;10.20;99.90;;;;;;7340929;32;20749;-64
2022/10/04 07:21:12;;;;;;;10.98;4.90;;;10.30;99.90;;;;;;7346141;32;20133;-63
2022/10/04 07:25:20;;;;;;;8.93;4.50;;;10.50;99.90;;;;;;7344970;32;20822;-63
2022/10/04 07:29:27;;;;;;;12.18;4.37;;;10.50;99.90;;;;;;7341066;32;20134;-63
2022/10/04 07:33:40;;;;;;;8.30;4.15;;;10.70;99.90;;;;;;7343748;32;20103;-63
2022/10/04 07:38:20;;;;;;;12.07;4.90;;;10.70;99.90;;;;;;7343273;32;20111;-63
2022/10/04 07:42:31;;;;;;;8.35;4.25;;;10.80;99.90;;;;;;7347950;32;20115;-66
2022/10/04 07:46:45;;;;;;;9.48;4.97;;;10.90;99.90;;;;;;7344424;32;20249;-64
2022/10/04 07:51:25;;;;;;;8.65;4.80;;;11.00;99.90;;;;;;7347412;32;20115;-65
2022/10/04 07:55:56;;;;;;;8.90;5.35;;;11.20;99.90;;;;;;7267326;32;20245;-66
2022/10/04 08:00:19;;;;;;;7.37;4.68;;;11.30;99.90;;;;;;7311314;32;20110;-64
2022/10/04 08:04:37;;;;;;;10.63;4.87;;;11.20;99.90;;;;;;7343738;32;20126;-64
2022/10/04 08:09:01;;;;;;;7.47;4.68;;;11.20;99.90;;;;;;7338637;32;20182;-65
2022/10/04 08:13:14;;;;;;;10.07;4.68;;;11.10;99.90;;;;;;7348375;32;20202;-63
2022/10/04 08:17:24;;;;;;;9.80;5.03;;;11.10;99.90;;;;;;7336143;32;20157;-63
2022/10/04 08:21:35;;;;;;;12.27;5.15;;;11.10;99.90;;;;;;7344818;32;20115;-64
2022/10/04 08:26:16;;;;;;;11.73;5.18;;;11.10;99.90;;;;;;7344787;32;20111;-64
2022/10/04 08:30:18;;;;;;;8.23;4.95;;;11.00;99.90;;;;;;7316676;32;20627;-64
2022/10/04 08:34:22;;;;;;;9.25;5.25;;;11.10;99.90;;;;;;7331435;32;20104;-65
2022/10/04 08:38:41;;;;;;;12.98;5.78;;;11.20;99.90;;;;;;7337546;32;20120;-64
2022/10/04 08:43:14;;;;;;;11.48;5.15;;;11.20;99.90;;;;;;7343782;32;20666;-62
2022/10/04 08:47:20;;;;;;;10.07;5.68;;;11.40;99.90;;;;;;7352147;32;20139;-63
2022/10/04 08:51:49;;;;;;;12.30;6.20;;;11.60;99.90;;;;;;7346974;32;20194;-64
2022/10/04 08:56:20;;;;;;;12.55;5.55;;;12.00;99.90;;;;;;7343365;32;20115;-64
2022/10/04 09:00:42;;;;;;;8.73;5.50;;;12.20;99.90;;;;;;7340741;32;20141;-64
2022/10/04 09:04:55;;;;;;;13.20;5.47;;;12.40;99.90;;;;;;7346635;32;20133;-64
2022/10/04 09:09:09;;;;;;;11.38;5.45;;;12.60;99.90;;;;;;7345392;32;20115;-64
2022/10/04 09:13:35;;;;;;;7.00;4.28;;;12.90;99.90;;;;;;7346181;32;20229;-66
2022/10/04 09:17:52;;;;;;;10.63;4.68;;;13.00;99.90;;;;;;7343853;32;20126;-65
2022/10/04 09:22:31;;;;;;;10.13;4.80;;;13.20;99.90;;;;;;7346323;32;20191;-64
2022/10/04 09:26:39;;;;;;;8.65;4.60;;;13.40;99.90;;;;;;7344429;32;20292;-63
2022/10/04 09:31:06;;;;;;;9.48;4.60;;;14.10;99.90;;;;;;7340521;32;20116;-64
2022/10/04 09:35:23;;;;;;;9.45;3.85;;;14.70;99.90;;;;;;7342736;32;20142;-64
2022/10/04 09:39:45;;;;;;;12.63;3.90;;;16.30;99.90;;;;;;7344442;32;20198;-65
2022/10/04 09:44:11;;;;;;;7.60;2.75;;;18.20;99.90;;;;;;7349698;32;20107;-65
2022/10/04 09:48:43;;;;;;;9.02;3.47;;;19.10;99.90;;;;;;7348345;32;20190;-64
2022/10/04 09:52:54;;;;;;;4.68;3.03;;;18.70;99.90;;;;;;7344825;32;20473;-64
2022/10/04 09:57:38;;;;;;;9.38;3.08;;;19.60;99.90;;;;;;7347488;32;20135;-64
2022/10/04 10:01:58;;;;;;;5.60;2.72;;;20.00;99.90;;;;;;7344154;32;20198;-64
2022/10/04 10:06:03;;;;;;;7.22;2.83;;;19.70;99.90;;;;;;7345775;32;20112;-64
2022/10/04 10:15:14;;;;;;;6.20;3.10;;;19.60;99.90;;;;;;7344937;32;20127;-64
2022/10/04 10:19:44;;;;;;;8.20;3.30;;;18.80;99.90;;;;;;7350485;32;20157;-65
2022/10/04 10:24:06;;;;;;;6.90;3.35;;;18.20;99.90;;;;;;7350771;32;20237;-64
2022/10/04 10:28:29;;;;;;;7.95;3.97;;;17.60;99.90;;;;;;7345893;32;20119;-64
2022/10/04 10:33:02;;;;;;;11.68;3.60;;;17.00;99.90;;;;;;7344849;32;20169;-64
2022/10/04 10:37:34;;;;;;;7.15;3.20;;;16.70;99.90;;;;;;7341761;32;20202;-64
2022/10/04 10:41:43;;;;;;;8.82;3.37;;;16.30;99.90;;;;;;7348818;32;20754;-63
2022/10/04 10:45:59;;;;;;;7.18;4.05;;;16.20;99.90;;;;;;7346587;32;20567;-64
2022/10/04 10:50:59;;;;;;;8.10;3.80;;;15.70;99.90;;;;;;7344407;32;20104;-64
2022/10/04 10:55:07;;;;;;;7.32;3.80;;;15.80;99.90;;;;;;7333779;32;20114;-64
2022/10/04 10:59:30;;;;;;;8.27;3.70;;;15.60;99.90;;;;;;7341537;32;20154;-64
2022/10/04 11:04:00;;;;;;;8.60;3.70;;;15.60;99.90;;;;;;7346840;32;20119;-64
2022/10/04 11:08:33;;;;;;;8.48;3.67;;;15.50;99.90;;;;;;7338806;32;20138;-65
2022/10/04 11:12:49;;;;;;;8.48;3.40;;;15.50;99.90;;;;;;7339055;32;20257;-65
2022/10/04 11:17:12;;;;;;;7.77;3.50;;;15.50;99.90;;;;;;7344509;32;20108;-65
2022/10/04 11:21:28;;;;;;;8.30;4.12;;;15.80;99.90;;;;;;7343489;32;20335;-64
2022/10/04 11:26:02;;;;;;;7.03;3.20;;;15.80;99.90;;;;;;7345060;32;20229;-64
2022/10/04 11:30:55;;;;;;;6.43;3.30;;;15.90;99.90;;;;;;7339586;32;20292;-64
2022/10/04 11:35:33;;;;;;;5.18;3.03;;;16.10;99.90;;;;;;7320327;32;20835;-66
2022/10/04 11:40:09;;;;;;;5.87;3.25;;;16.40;99.90;;;;;;7343749;32;20134;-64
2022/10/04 11:44:29;;;;;;;8.02;2.87;;;16.70;99.90;;;;;;7348907;32;20126;-64
2022/10/04 11:48:52;;;;;;;9.63;3.20;;;16.90;99.90;;;;;;7342090;32;20206;-64
2022/10/04 11:53:29;;;;;;;9.35;3.10;;;17.00;99.90;;;;;;7338264;32;20190;-64
2022/10/04 11:57:44;;;;;;;5.47;2.80;;;17.10;99.90;;;;;;7342240;32;20230;-66
2022/10/04 12:01:49;;;;;;;9.20;3.35;;;17.00;99.90;;;;;;7344914;32;20189;-65
2022/10/04 12:06:02;;;;;;;5.05;2.90;;;17.40;99.90;;;;;;7340379;32;20245;-65
2022/10/04 12:10:19;;;;;;;6.75;3.00;;;17.50;99.90;;;;;;7341159;32;20410;-64
2022/10/04 12:14:39;;;;;;;5.73;3.07;;;17.50;99.90;;;;;;7347781;32;20344;-65
2022/10/04 12:19:01;;;;;;;6.57;3.30;;;17.50;99.90;;;;;;7347474;32;20171;-65
2022/10/04 12:23:29;;;;;;;8.05;2.62;;;17.60;99.90;;;;;;7348740;32;20096;-64
2022/10/04 12:27:53;;;;;;;6.50;2.90;;;17.60;99.90;;;;;;7347642;32;20605;-64
2022/10/04 12:32:16;;;;;;;5.72;2.47;;;17.60;99.90;;;;;;7348985;32;20166;-64
2022/10/04 12:36:38;;;;;;;5.80;3.25;;;17.70;99.90;;;;;;7348909;32;20210;-65
2022/10/04 12:41:03;;;;;;;5.68;3.30;;;17.70;99.90;;;;;;7349170;32;20146;-67
2022/10/04 12:45:20;;;;;;;7.90;3.08;;;17.70;99.90;;;;;;7348342;32;20202;-65
2022/10/04 12:49:24;;;;;;;6.68;2.97;;;17.80;99.90;;;;;;7347427;32;20194;-65
2022/10/04 12:53:56;;;;;;;8.13;3.45;;;17.80;99.90;;;;;;7349062;32;20190;-64
2022/10/04 12:58:06;;;;;;;5.07;2.85;;;17.80;99.90;;;;;;7346055;32;20126;-64
2022/10/04 13:02:34;;;;;;;5.47;2.85;;;17.80;99.90;;;;;;7356457;32;20118;-65
2022/10/04 13:06:58;;;;;;;6.05;2.90;;;17.80;99.90;;;;;;7352154;32;20145;-59
2022/10/04 13:11:17;;;;;;;7.45;2.75;;;17.80;99.90;;;;;;7347687;32;20182;-58
2022/10/04 13:15:29;;;;;;;8.88;2.53;;;17.90;99.90;;;;;;7348127;32;20558;-58
2022/10/04 13:20:36;;;;;;;6.90;2.67;;;18.20;99.90;;;;;;7352446;32;20111;-59
2022/10/04 13:24:55;;;;;;;6.50;2.92;;;18.70;99.90;;;;;;7342740;32;20460;-58
2022/10/04 13:29:16;;;;;;;7.85;2.83;;;19.10;99.90;;;;;;7349815;32;20133;-58
2022/10/04 13:33:50;;;;;;;4.70;2.62;;;19.30;99.90;;;;;;7339968;32;20131;-64
2022/10/04 13:38:18;;;;;;;6.62;3.17;;;19.30;99.90;;;;;;7344445;32;20139;-64
2022/10/04 13:43:18;;;;;;;6.28;2.75;;;19.00;99.90;;;;;;7356883;32;20141;-63
2022/10/04 13:47:51;;;;;;;8.85;2.90;;;18.70;99.90;;;;;;7280660;32;20202;-63
2022/10/04 13:57:17;;;;;;;4.53;2.45;;;18.70;99.90;;;;;;7350665;32;20136;-65
2022/10/04 14:01:47;;;;;;;7.80;2.92;;;18.80;99.90;;;;;;7340522;32;20152;-64
2022/10/04 14:06:08;;;;;;;6.87;2.55;;;19.00;99.90;;;;;;7347094;32;20565;-66
2022/10/04 14:10:48;;;;;;;6.03;2.62;;;19.20;99.90;;;;;;7345647;32;20104;-65
2022/10/04 14:15:15;;;;;;;6.62;2.75;;;19.40;99.90;;;;;;7344977;32;20190;-65
2022/10/04 14:19:35;;;;;;;5.53;2.43;;;19.80;99.90;;;;;;7348611;32;20175;-64
2022/10/04 14:24:22;;;;;;;6.15;3.00;;;19.70;99.90;;;;;;7342111;32;20448;-64
2022/10/04 14:28:50;;;;;;;7.97;3.20;;;19.50;99.90;;;;;;7351596;32;20107;-66
2022/10/04 14:33:10;;;;;;;6.10;2.40;;;19.30;99.90;;;;;;7348220;32;20527;-65
2022/10/04 14:37:33;;;;;;;7.47;2.97;;;18.90;99.90;;;;;;7347676;32;20110;-64
2022/10/04 14:41:55;;;;;;;6.30;3.03;;;18.80;99.90;;;;;;7342917;32;20134;-63
2022/10/04 14:46:21;;;;;;;9.15;3.10;;;18.70;99.90;;;;;;7358744;32;20115;-64
2022/10/04 14:50:46;;;;;;;7.00;2.72;;;18.50;99.90;;;;;;7335393;32;20135;-65
2022/10/04 14:54:53;;;;;;;5.40;2.95;;;18.30;99.90;;;;;;7350207;32;20499;-66
2022/10/04 14:59:09;;;;;;;6.03;2.80;;;18.20;99.90;;;;;;7339604;32;20135;-64
2022/10/04 15:03:47;;;;;;;8.18;3.17;;;18.20;99.90;;;;;;7333520;32;20107;-64
2022/10/04 15:08:13;;;;;;;8.15;2.60;;;18.30;99.90;;;;;;7316569;32;20096;-64
2022/10/04 15:12:38;;;;;;;6.22;2.90;;;18.00;99.90;;;;;;7341370;32;20512;-65
2022/10/04 15:17:23;;;;;;;7.22;3.10;;;17.90;99.90;;;;;;7343482;32;20118;-67
2022/10/04 15:21:43;;;;;;;4.28;2.37;;;17.90;99.90;;;;;;7351078;32;20197;-65
2022/10/04 15:25:46;;;;;;;6.85;2.47;;;17.80;99.90;;;;;;7349437;32;20191;-67
2022/10/04 15:30:13;;;;;;;8.68;2.60;;;17.80;99.90;;;;;;7352685;32;20135;-64
2022/10/04 15:34:46;;;;;;;9.40;2.70;;;17.80;99.90;;;;;;7340371;32;20222;-59
2022/10/04 15:38:52;;;;;;;6.40;2.65;;;17.50;99.90;;;;;;7341606;32;20104;-60
2022/10/04 15:43:12;;;;;;;5.13;2.57;;;17.50;99.90;;;;;;7344444;32;20108;-62
2022/10/04 15:47:43;;;;;;;6.20;2.75;;;17.40;99.90;;;;;;7343221;32;20288;-59
2022/10/04 15:52:12;;;;;;;6.62;2.70;;;17.30;99.90;;;;;;7341303;32;20202;-59
2022/10/04 15:56:40;;;;;;;6.87;3.35;;;17.10;99.90;;;;;;7348948;32;20121;-59
2022/10/04 16:00:51;;;;;;;7.07;2.87;;;16.90;99.90;;;;;;7347234;32;20143;-58
2022/10/04 16:05:06;;;;;;;7.35;3.65;;;16.70;99.90;;;;;;7341342;32;20111;-58
2022/10/04 16:09:36;;;;;;;6.47;2.80;;;16.60;99.90;;;;;;7339684;32;20126;-59
2022/10/04 16:13:57;;;;;;;11.23;2.70;;;16.60;99.90;;;;;;7344300;32;20521;-58
2022/10/04 16:18:01;;;;;;;5.80;2.67;;;16.40;99.90;;;;;;7344098;32;20107;-59
2022/10/04 16:22:15;;;;;;;9.27;3.20;;;16.20;99.90;;;;;;7340786;32;20123;-58
2022/10/04 16:26:18;;;;;;;8.10;3.10;;;16.10;99.90;;;;;;7338499;32;20099;-65
2022/10/04 16:30:38;;;;;;;7.70;3.67;;;15.90;99.90;;;;;;7338924;32;20230;-64
2022/10/04 16:34:58;;;;;;;9.88;4.68;;;15.70;99.90;;;;;;7347274;32;20095;-66
2022/10/04 16:43:27;;;;;;;8.63;4.00;;;15.10;99.90;;;;;;7336640;32;20536;-63
2022/10/04 16:47:46;;;;;;;5.43;3.70;;;14.80;99.90;;;;;;7343553;32;20133;-64
2022/10/04 16:52:08;;;;;;;13.62;4.55;;;14.60;99.90;;;;;;7333098;32;20121;-66
2022/10/04 16:56:17;;;;;;;12.68;8.10;;;14.40;99.90;;;;;;7330384;32;20209;-65
2022/10/04 17:00:33;;;;;;;6.47;5.05;;;14.20;99.90;;;;;;7337106;32;20187;-64
2022/10/04 17:04:35;;;;;;;6.70;4.27;;;14.00;99.90;;;;;;7340030;32;20330;-64
2022/10/04 17:08:54;;;;;;;11.10;4.57;;;13.80;99.90;;;;;;7338003;32;20123;-65
2022/10/04 17:13:15;;;;;;;8.48;4.30;;;13.60;99.90;;;;;;7341566;32;20568;-65
2022/10/04 17:17:46;;;;;;;15.13;8.90;;;13.40;99.90;;;;;;7348428;32;20127;-62
2022/10/04 17:22:17;;;;;;;12.75;7.75;;;13.30;99.90;;;;;;7340384;32;20463;-62
2022/10/04 17:26:34;;;;;;;7.18;4.53;;;13.10;99.90;;;;;;7355229;32;20111;-61
2022/10/04 17:30:49;;;;;;;;;;;13.00;99.90;;;;;;7350852;32;20125;-61
2022/10/04 17:35:10;;;;;;;9.77;5.70;;;12.80;99.90;;;;;;7341736;32;20056;-63
2022/10/04 17:39:22;;;;;;;12.93;5.40;;;12.60;99.90;;;;;;7351031;32;20118;-61
2022/10/04 17:43:40;;;;;;;11.30;5.28;;;12.50;99.90;;;;;;7349281;32;20107;-61
2022/10/04 17:56:37;;;;;;;16.75;7.82;;;12.10;99.90;;;;;;7346375;32;20103;-64
2022/10/04 18:01:03;;;;;;;32.30;19.95;;;12.00;99.90;;;;;;7336621;32;20225;-62
2022/10/04 18:05:25;;;;;;;9.65;6.95;;;11.80;99.90;;;;;;7341274;32;20525;-61
2022/10/04 18:09:32;;;;;;;13.80;6.40;;;11.80;99.90;;;;;;7343173;32;20133;-63
2022/10/04 18:13:45;;;;;;;11.10;5.97;;;11.70;99.90;;;;;;7344514;32;20607;-62
2022/10/04 18:17:50;;;;;;;9.90;5.72;;;11.70;99.90;;;;;;7338787;32;20095;-64
2022/10/04 18:21:55;;;;;;;12.25;6.10;;;11.70;99.90;;;;;;7343466;32;20592;-62
2022/10/04 18:26:00;;;;;;;8.88;5.65;;;11.60;99.90;;;;;;7345817;32;20107;-63
2022/10/04 18:30:15;;;;;;;10.68;5.95;;;11.40;99.90;;;;;;7354657;32;20129;-62
2022/10/04 18:34:27;;;;;;;10.75;5.97;;;11.30;99.90;;;;;;7345079;32;20126;-66
2022/10/04 18:38:41;;;;;;;10.13;5.72;;;11.20;99.90;;;;;;7336480;32;20108;-66
2022/10/04 18:42:51;;;;;;;14.10;6.35;;;11.10;99.90;;;;;;7343171;32;20123;-63
2022/10/04 18:46:56;;;;;;;25.12;17.05;;;11.00;99.90;;;;;;7346825;32;20151;-64
2022/10/04 18:51:38;;;;;;;9.38;6.28;;;11.00;99.90;;;;;;7344756;32;20161;-63
2022/10/04 18:55:55;;;;;;;11.05;6.82;;;10.90;99.90;;;;;;7340714;32;20258;-63
2022/10/04 19:05:04;;;;;;;14.80;6.53;;;10.90;99.90;;;;;;7350924;32;20127;-63
2022/10/04 19:09:17;;;;;;;10.63;7.37;;;10.90;99.90;;;;;;7310479;32;20130;-63
2022/10/04 19:13:32;;;;;;;10.93;6.65;;;10.90;99.90;;;;;;7337960;32;20121;-64
2022/10/04 19:17:58;;;;;;;10.77;6.62;;;10.90;99.90;;;;;;7346754;32;20175;-61
2022/10/04 19:22:25;;;;;;;11.20;6.62;;;10.90;99.90;;;;;;7340105;32;20117;-63
2022/10/04 19:26:40;;;;;;;13.98;8.43;;;10.80;99.90;;;;;;7340452;32;20133;-66
2022/10/04 19:30:57;;;;;;;15.52;8.18;;;10.80;99.90;;;;;;7339370;32;20114;-62
2022/10/04 19:35:14;;;;;;;12.33;7.30;;;10.80;99.90;;;;;;7340068;32;20194;-62
2022/10/04 19:39:46;;;;;;;13.75;7.05;;;10.70;99.90;;;;;;7331900;32;20183;-64
2022/10/04 19:44:04;;;;;;;13.00;6.60;;;10.60;99.90;;;;;;7332417;32;20166;-62
2022/10/04 19:48:24;;;;;;;10.57;6.45;;;10.70;99.90;;;;;;7337822;32;20209;-61
2022/10/04 19:52:45;;;;;;;12.65;5.95;;;10.60;99.90;;;;;;7342883;32;20358;-62
2022/10/04 19:56:49;;;;;;;12.40;6.30;;;10.50;99.90;;;;;;7333454;32;20189;-63
2022/10/04 20:00:51;;;;;;;13.32;6.70;;;10.30;99.90;;;;;;7338817;32;20103;-61
2022/10/04 20:04:55;;;;;;;13.77;7.82;;;10.30;99.90;;;;;;7343894;32;20126;-61
2022/10/04 20:09:22;;;;;;;14.00;7.82;;;10.20;99.90;;;;;;7339983;32;20516;-62
2022/10/04 20:13:24;;;;;;;11.65;7.07;;;10.10;99.90;;;;;;7332503;32;20301;-62
2022/10/04 20:17:30;;;;;;;8.68;6.78;;;10.10;99.90;;;;;;7328148;32;20561;-62
2022/10/04 20:21:32;;;;;;;11.30;6.53;;;10.10;99.90;;;;;;7336450;32;20136;-61
2022/10/04 20:25:44;;;;;;;15.93;6.40;;;10.00;99.90;;;;;;7340704;32;20099;-62
2022/10/04 20:29:52;;;;;;;14.32;6.75;;;10.00;99.90;;;;;;7349844;32;20257;-62
2022/10/04 20:33:53;;;;;;;7.93;5.97;;;9.90;99.90;;;;;;7348850;32;20224;-62
2022/10/04 20:37:55;;;;;;;14.18;6.32;;;9.90;99.90;;;;;;7340146;32;20143;-62
2022/10/04 20:42:27;;;;;;;14.95;7.72;;;9.80;99.90;;;;;;7341080;32;20100;-63
2022/10/04 20:46:36;;;;;;;10.73;7.18;;;9.70;99.90;;;;;;7346621;32;20738;-62
2022/10/04 20:50:41;;;;;;;13.32;8.00;;;9.70;99.90;;;;;;7341578;32;20630;-62
2022/10/04 20:54:51;;;;;;;10.23;7.70;;;9.60;99.90;;;;;;7342955;32;20186;-62
2022/10/04 20:59:01;;;;;;;14.75;8.30;;;9.60;99.90;;;;;;7339746;32;20211;-63
2022/10/04 21:03:15;;;;;;;12.82;6.95;;;9.60;99.90;;;;;;7337711;32;20130;-63
2022/10/04 21:07:20;;;;;;;12.32;7.43;;;9.60;99.90;;;;;;7331293;32;20609;-64
2022/10/04 21:11:22;;;;;;;10.85;6.80;;;9.60;99.90;;;;;;7343243;32;20182;-63
2022/10/04 21:15:23;;;;;;;12.95;8.35;;;9.60;99.90;;;;;;7341846;32;20224;-62
2022/10/04 21:19:29;;;;;;;15.82;8.00;;;9.70;99.90;;;;;;7349180;32;20125;-62
2022/10/04 21:23:33;;;;;;;9.73;7.28;;;9.70;99.90;;;;;;7340855;32;20107;-61
2022/10/04 21:27:37;;;;;;;16.40;8.35;;;9.80;99.90;;;;;;7339293;32;20108;-61
2022/10/04 21:31:39;;;;;;;14.87;7.97;;;10.00;99.90;;;;;;7340273;32;20236;-61
2022/10/04 21:35:40;;;;;;;12.80;7.53;;;10.10;99.90;;;;;;7336394;32;20577;-63
2022/10/04 21:39:42;;;;;;;9.40;7.50;;;10.10;99.90;;;;;;7337795;32;20104;-61
2022/10/04 21:43:44;;;;;;;15.88;8.60;;;10.10;99.90;;;;;;7339959;32;20129;-61
2022/10/04 21:47:46;;;;;;;10.68;7.80;;;10.20;99.90;;;;;;7344684;32;20224;-62
2022/10/04 21:51:47;;;;;;;11.57;7.53;;;10.20;99.90;;;;;;7349729;32;20684;-62
2022/10/04 21:55:49;;;;;;;10.38;7.15;;;10.20;99.90;;;;;;7345804;32;20130;-62
2022/10/04 21:59:51;;;;;;;11.10;7.45;;;10.20;99.90;;;;;;7346568;32;20104;-61
2022/10/04 22:03:53;;;;;;;11.85;8.00;;;10.20;99.90;;;;;;7348452;32;20131;-60
2022/10/04 22:07:57;;;;;;;11.93;7.28;;;10.30;99.90;;;;;;7351248;32;20179;-60
2022/10/04 22:11:58;;;;;;;12.93;7.18;;;10.30;99.90;;;;;;7348199;32;20187;-61
2022/10/04 22:16:14;;;;;;;12.85;7.93;;;10.30;99.90;;;;;;7351242;32;20782;-62
2022/10/04 22:20:16;;;;;;;10.70;7.50;;;10.30;99.90;;;;;;7350288;32;20201;-61
2022/10/04 22:24:19;;;;;;;10.38;6.40;;;10.20;99.90;;;;;;7342960;32;20103;-62
2022/10/04 22:28:25;;;;;;;12.85;7.72;;;10.20;99.90;;;;;;7346699;32;20100;-61
2022/10/04 22:32:27;;;;;;;13.38;6.90;;;10.10;99.90;;;;;;7347067;32;20174;-61
2022/10/04 22:36:35;;;;;;;9.52;6.87;;;10.10;99.90;;;;;;7336598;32;20129;-61
2022/10/04 22:40:37;;;;;;;10.57;7.35;;;10.10;99.90;;;;;;7351958;32;20199;-62